createdAt,value
2018-04-01T00:00:25.732Z,7.93
2018-04-01T00:05:27.936Z,7.67
2018-04-01T00:10:29.980Z,7.80
2018-04-01T00:15:32.003Z,8.00
2018-04-01T00:20:34.205Z,6.93
2018-04-01T00:25:38.152Z,6.70
2018-04-01T00:30:40.197Z,6.40
2018-04-01T00:35:42.322Z,5.73
2018-04-01T00:40:44.405Z,6.20
2018-04-01T00:45:47.261Z,6.10
2018-04-01T00:50:49.809Z,6.30
2018-04-01T00:55:52.126Z,6.50
2018-04-01T01:00:54.581Z,6.27
2018-04-01T01:05:56.925Z,6.50
2018-04-01T01:11:01.504Z,5.97
2018-04-01T01:16:03.920Z,5.80
2018-04-01T01:21:06.020Z,5.93
2018-04-01T01:26:08.134Z,5.60
2018-04-01T01:31:10.217Z,5.00
2018-04-01T01:36:12.317Z,5.00
2018-04-01T01:41:14.369Z,4.63
2018-04-01T01:46:16.454Z,5.03
2018-04-01T01:51:18.691Z,5.00
2018-04-01T01:56:21.180Z,5.17
2018-04-01T02:01:23.727Z,4.70
2018-04-01T02:06:25.972Z,5.37
2018-04-01T02:11:29.170Z,4.70
2018-04-01T02:16:32.015Z,4.10
2018-04-01T02:21:34.252Z,5.00
2018-04-01T02:26:36.795Z,5.07
2018-04-01T02:31:38.866Z,4.97
2018-04-01T02:36:40.879Z,5.53
2018-04-01T02:41:42.984Z,4.73
2018-04-01T02:46:45.021Z,4.93
2018-04-01T02:51:47.078Z,4.90
2018-04-01T02:56:49.374Z,3.87
2018-04-01T03:01:51.571Z,4.20
2018-04-01T03:06:53.792Z,4.33
2018-04-01T03:11:55.835Z,3.90
2018-04-01T03:16:57.868Z,4.07
2018-04-01T03:22:00.666Z,4.10
2018-04-01T03:27:02.707Z,4.10
2018-04-01T03:32:04.929Z,4.47
2018-04-01T03:37:06.983Z,3.60
2018-04-01T03:42:09.009Z,3.73
2018-04-01T03:47:11.131Z,3.50
2018-04-01T03:52:13.359Z,3.97
2018-04-01T03:57:15.409Z,3.73
2018-04-01T04:02:17.759Z,3.57
2018-04-01T04:07:22.195Z,3.70
2018-04-01T04:12:25.365Z,3.50
2018-04-01T04:17:27.555Z,3.60
2018-04-01T04:22:31.088Z,3.13
2018-04-01T04:27:33.354Z,2.97
2018-04-01T04:32:35.525Z,3.50
2018-04-01T04:37:38.102Z,3.10
2018-04-01T04:42:40.531Z,2.90
2018-04-01T04:47:44.171Z,2.70
2018-04-01T04:52:46.721Z,3.37
2018-04-01T04:57:49.049Z,3.63
2018-04-01T05:02:51.997Z,2.83
2018-04-01T05:07:54.255Z,3.27
2018-04-01T05:12:56.433Z,3.00
2018-04-01T05:17:59.357Z,2.80
2018-04-01T05:23:01.410Z,3.00
2018-04-01T05:28:04.211Z,2.80
2018-04-01T05:33:07.256Z,2.90
2018-04-01T05:38:09.322Z,2.30
2018-04-01T05:43:11.383Z,3.00
2018-04-01T05:48:13.568Z,2.23
2018-04-01T05:53:15.850Z,2.77
2018-04-01T05:58:17.896Z,2.53
2018-04-01T06:03:20.178Z,2.90
2018-04-01T06:08:22.224Z,2.40
2018-04-01T06:13:24.490Z,2.60
2018-04-01T06:18:26.540Z,2.80
2018-04-01T06:23:28.594Z,2.30
2018-04-01T06:28:30.659Z,2.40
2018-04-01T06:33:32.678Z,2.33
2018-04-01T06:38:34.754Z,2.27
2018-04-01T06:43:37.729Z,2.23
2018-04-01T06:48:39.802Z,2.70
2018-04-01T06:53:41.856Z,2.13
2018-04-01T06:58:44.364Z,1.80
2018-04-01T07:03:46.487Z,2.00
2018-04-01T07:08:48.914Z,2.20
2018-04-01T07:13:51.224Z,1.73
2018-04-01T07:18:53.523Z,1.80
2018-04-01T07:23:57.685Z,1.73
2018-04-01T07:29:00.947Z,2.30
2018-04-01T07:34:03.393Z,1.67
2018-04-01T07:39:05.651Z,2.07
2018-04-01T07:44:08.003Z,2.00
2018-04-01T07:49:10.364Z,1.83
2018-04-01T07:54:14.151Z,2.03
2018-04-01T07:59:16.561Z,1.70
2018-04-01T08:04:18.716Z,1.93
2018-04-01T08:09:21.535Z,1.80
2018-04-01T08:14:23.919Z,1.50
2018-04-01T08:19:26.198Z,1.90
2018-04-01T08:24:28.336Z,1.77
2018-04-01T08:29:30.405Z,2.23
2018-04-01T08:34:32.472Z,1.90
2018-04-01T08:39:34.602Z,1.70
2018-04-01T08:44:36.637Z,1.57
2018-04-01T08:49:38.708Z,2.03
2018-04-01T08:54:40.821Z,1.80
2018-04-01T08:59:43.057Z,2.23
2018-04-01T09:04:45.245Z,2.07
2018-04-01T09:09:47.298Z,2.43
2018-04-01T09:14:50.165Z,2.40
2018-04-01T09:19:52.279Z,2.70
2018-04-01T09:24:54.337Z,2.73
2018-04-01T09:29:56.567Z,2.70
2018-04-01T09:35:01.880Z,2.77
2018-04-01T09:40:03.931Z,3.10
2018-04-01T09:45:05.997Z,2.37
2018-04-01T09:50:08.082Z,1.93
2018-04-01T09:55:10.145Z,2.27
2018-04-01T10:00:12.377Z,2.13
2018-04-01T10:05:15.033Z,2.20
2018-04-01T10:10:17.592Z,2.80
2018-04-01T10:15:20.171Z,2.30
2018-04-01T10:20:23.153Z,2.30
2018-04-01T10:25:25.753Z,2.10
2018-04-01T10:30:29.121Z,2.27
2018-04-01T10:35:32.517Z,2.20
2018-04-01T10:40:35.127Z,2.20
2018-04-01T10:45:38.535Z,2.40
2018-04-01T10:50:41.103Z,2.70
2018-04-01T10:55:43.148Z,2.57
2018-04-01T11:00:45.207Z,2.17
2018-04-01T11:05:47.464Z,2.33
2018-04-01T11:10:49.497Z,2.00
2018-04-01T11:15:51.568Z,2.30
2018-04-01T11:20:54.362Z,1.97
2018-04-01T11:25:57.154Z,2.80
2018-04-01T11:30:59.210Z,2.10
2018-04-01T11:36:01.376Z,1.90
2018-04-01T11:41:03.491Z,1.90
2018-04-01T11:46:05.541Z,2.47
2018-04-01T11:51:07.547Z,2.23
2018-04-01T11:56:09.616Z,2.10
2018-04-01T12:01:11.644Z,2.50
2018-04-01T12:06:13.934Z,2.47
2018-04-01T12:11:16.039Z,2.13
2018-04-01T12:16:18.204Z,2.40
2018-04-01T12:21:21.024Z,2.27
2018-04-01T12:26:23.298Z,2.20
2018-04-01T12:31:26.216Z,2.20
2018-04-01T12:36:28.388Z,2.50
2018-04-01T12:41:30.483Z,2.70
2018-04-01T12:46:32.857Z,2.37
2018-04-01T12:51:34.950Z,2.87
2018-04-01T12:56:36.997Z,2.40
2018-04-01T13:01:39.063Z,2.60
2018-04-01T13:06:41.413Z,2.43
2018-04-01T13:11:43.931Z,3.30
2018-04-01T13:16:45.993Z,2.53
2018-04-01T13:21:48.043Z,2.60
2018-04-01T13:26:51.064Z,2.60
2018-04-01T13:31:53.175Z,2.80
2018-04-01T13:36:55.422Z,2.70
2018-04-01T13:41:58.240Z,3.23
2018-04-01T13:47:00.373Z,2.73
2018-04-01T13:52:02.475Z,2.60
2018-04-01T13:57:04.576Z,3.00
2018-04-01T14:02:06.636Z,3.20
2018-04-01T14:07:08.671Z,3.10
2018-04-01T14:12:10.734Z,3.17
2018-04-01T14:17:12.861Z,3.00
2018-04-01T14:22:14.928Z,2.80
2018-04-01T14:27:17.164Z,2.80
2018-04-01T14:32:19.206Z,3.03
2018-04-01T14:37:21.903Z,2.97
2018-04-01T14:42:24.350Z,2.67
2018-04-01T14:47:26.436Z,2.50
2018-04-01T14:52:29.260Z,2.60
2018-04-01T14:57:31.306Z,2.70
2018-04-01T15:02:34.106Z,3.13
2018-04-01T15:07:37.049Z,2.43
2018-04-01T15:12:39.311Z,2.67
2018-04-01T15:17:41.942Z,2.30
2018-04-01T15:22:44.252Z,3.07
2018-04-01T15:27:47.432Z,3.20
2018-04-01T15:32:49.651Z,3.30
2018-04-01T15:37:51.698Z,2.57
2018-04-01T15:42:53.788Z,3.27
2018-04-01T15:47:57.060Z,3.10
2018-04-01T15:52:59.920Z,3.23
2018-04-01T15:58:02.133Z,3.17
2018-04-01T16:03:04.327Z,3.07
2018-04-01T16:08:06.447Z,3.73
2018-04-01T16:13:08.688Z,3.30
2018-04-01T16:18:10.859Z,3.10
2018-04-01T16:23:12.926Z,3.03
2018-04-01T16:28:14.979Z,3.23
2018-04-01T16:33:17.033Z,3.43
2018-04-01T16:38:19.097Z,3.00
2018-04-01T16:43:21.215Z,3.00
2018-04-01T16:48:24.206Z,2.47
2018-04-01T16:53:26.290Z,2.77
2018-04-01T16:58:29.147Z,3.17
2018-04-01T17:03:31.271Z,3.63
2018-04-01T17:08:34.152Z,3.50
2018-04-01T17:13:36.290Z,4.07
2018-04-01T17:18:38.415Z,3.80
2018-04-01T17:23:40.533Z,3.73
2018-04-01T17:28:42.583Z,3.27
2018-04-01T17:33:44.637Z,3.13
2018-04-01T17:38:46.718Z,3.70
2018-04-01T17:43:49.079Z,3.00
2018-04-01T17:48:51.130Z,2.90
2018-04-01T17:53:53.260Z,3.00
2018-04-01T17:58:55.311Z,2.73
2018-04-01T18:03:58.315Z,2.50
2018-04-01T18:09:00.608Z,2.87
2018-04-01T18:14:02.650Z,2.93
2018-04-01T18:19:04.708Z,2.90
2018-04-01T18:24:06.744Z,2.93
2018-04-01T18:29:08.830Z,2.80
2018-04-01T18:34:10.946Z,2.73
2018-04-01T18:39:13.021Z,2.20
2018-04-01T18:44:15.064Z,2.50
2018-04-01T18:49:17.170Z,2.77
2018-04-01T18:54:19.959Z,2.60
2018-04-01T18:59:22.047Z,2.60
2018-04-01T19:04:24.123Z,2.80
2018-04-01T19:09:26.162Z,3.03
2018-04-01T19:14:29.180Z,2.47
2018-04-01T19:19:31.767Z,3.20
2018-04-01T19:24:34.299Z,2.53
2018-04-01T19:29:37.045Z,2.80
2018-04-01T19:34:39.783Z,3.10
2018-04-01T19:39:42.653Z,2.90
2018-04-01T19:44:45.425Z,3.07
2018-04-01T19:49:47.973Z,2.70
2018-04-01T19:54:50.645Z,2.17
2018-04-01T19:59:53.227Z,2.70
2018-04-01T20:04:56.262Z,3.07
2018-04-01T20:09:59.628Z,2.30
2018-04-01T20:15:02.212Z,2.53
2018-04-01T20:20:05.543Z,3.03
2018-04-01T20:25:08.140Z,2.80
2018-04-01T20:30:10.688Z,2.70
2018-04-01T20:35:13.991Z,3.17
2018-04-01T20:40:16.619Z,2.63
2018-04-01T20:45:20.028Z,2.87
2018-04-01T20:50:22.726Z,3.07
2018-04-01T20:55:25.427Z,2.60
2018-04-01T21:00:29.489Z,2.60
2018-04-01T21:05:32.091Z,3.20
2018-04-01T21:10:34.838Z,2.70
2018-04-01T21:15:37.366Z,2.80
2018-04-01T21:20:40.194Z,2.63
2018-04-01T21:25:43.243Z,2.53
2018-04-01T21:30:46.082Z,2.30
2018-04-01T21:35:48.685Z,2.50
2018-04-01T21:40:51.486Z,2.20
2018-04-01T21:45:54.151Z,2.37
2018-04-01T21:50:56.785Z,2.20
2018-04-01T21:55:59.352Z,2.90
2018-04-01T22:01:02.628Z,2.87
2018-04-01T22:06:05.181Z,2.30
2018-04-01T22:11:07.698Z,2.67
2018-04-01T22:16:11.145Z,2.57
2018-04-01T22:21:14.582Z,2.57
2018-04-01T22:26:17.135Z,2.40
2018-04-01T22:31:19.773Z,2.50
2018-04-01T22:36:22.393Z,2.57
2018-04-01T22:41:25.592Z,2.80
2018-04-01T22:46:28.145Z,2.77
2018-04-01T22:51:31.199Z,3.10
2018-04-01T22:56:34.017Z,2.87
2018-04-01T23:01:36.621Z,2.30
2018-04-01T23:06:39.133Z,3.43
2018-04-01T23:11:41.910Z,2.57
2018-04-01T23:16:44.444Z,2.40
2018-04-01T23:21:47.012Z,2.60
2018-04-01T23:26:50.199Z,2.43
2018-04-01T23:31:52.888Z,2.37
2018-04-01T23:36:55.438Z,2.50
2018-04-01T23:41:58.810Z,2.13
2018-04-01T23:47:01.529Z,2.00
2018-04-01T23:52:05.026Z,2.10
2018-04-01T23:57:07.552Z,2.30
